sensor_id;sensor_type;location;lat;lon;timestamp;P1;durP1;ratioP1;P2;durP2;ratioP2
70838;SDS011;58464;52.298;4.852;2022-11-20T00:00:27;19.15;;;10.43;;
70838;SDS011;58464;52.298;4.852;2022-11-20T00:02:52;20.25;;;12.27;;
70838;SDS011;58464;52.298;4.852;2022-11-20T00:05:18;11.30;;;6.80;;
70838;SDS011;58464;52.298;4.852;2022-11-20T00:07:44;11.13;;;6.55;;
70838;SDS011;58464;52.298;4.852;2022-11-20T00:10:10;11.70;;;6.30;;
70838;SDS011;58464;52.298;4.852;2022-11-20T00:12:35;10.63;;;6.82;;
70838;SDS011;58464;52.298;4.852;2022-11-20T00:15:00;10.65;;;5.80;;
70838;SDS011;58464;52.298;4.852;2022-11-20T00:17:26;10.82;;;6.68;;
70838;SDS011;58464;52.298;4.852;2022-11-20T00:19:51;13.05;;;6.20;;
70838;SDS011;58464;52.298;4.852;2022-11-20T00:22:17;12.60;;;6.05;;
70838;SDS011;58464;52.298;4.852;2022-11-20T00:24:43;8.20;;;5.38;;
70838;SDS011;58464;52.298;4.852;2022-11-20T00:27:09;11.70;;;6.40;;
70838;SDS011;58464;52.298;4.852;2022-11-20T00:29:36;9.93;;;5.72;;
70838;SDS011;58464;52.298;4.852;2022-11-20T00:32:02;9.88;;;6.68;;
70838;SDS011;58464;52.298;4.852;2022-11-20T00:34:27;9.27;;;6.15;;
70838;SDS011;58464;52.298;4.852;2022-11-20T00:36:52;11.32;;;6.00;;
70838;SDS011;58464;52.298;4.852;2022-11-20T00:39:18;9.27;;;5.75;;
70838;SDS011;58464;52.298;4.852;2022-11-20T00:41:43;11.15;;;6.55;;
70838;SDS011;58464;52.298;4.852;2022-11-20T00:44:08;9.25;;;6.18;;
70838;SDS011;58464;52.298;4.852;2022-11-20T00:46:34;9.23;;;6.40;;
70838;SDS011;58464;52.298;4.852;2022-11-20T00:49:00;13.65;;;8.02;;
70838;SDS011;58464;52.298;4.852;2022-11-20T00:51:26;11.95;;;6.05;;
70838;SDS011;58464;52.298;4.852;2022-11-20T00:53:54;13.40;;;7.45;;
70838;SDS011;58464;52.298;4.852;2022-11-20T00:56:20;11.55;;;7.10;;
70838;SDS011;58464;52.298;4.852;2022-11-20T00:58:46;11.30;;;6.57;;
70838;SDS011;58464;52.298;4.852;2022-11-20T01:01:14;11.00;;;6.72;;
70838;SDS011;58464;52.298;4.852;2022-11-20T01:03:44;10.90;;;6.88;;
70838;SDS011;58464;52.298;4.852;2022-11-20T01:06:17;11.02;;;6.68;;
70838;SDS011;58464;52.298;4.852;2022-11-20T01:08:44;23.20;;;11.48;;
70838;SDS011;58464;52.298;4.852;2022-11-20T01:11:12;41.95;;;16.17;;
70838;SDS011;58464;52.298;4.852;2022-11-20T01:13:39;25.75;;;11.82;;
70838;SDS011;58464;52.298;4.852;2022-11-20T01:16:10;11.95;;;6.90;;
70838;SDS011;58464;52.298;4.852;2022-11-20T01:18:38;13.73;;;6.45;;
70838;SDS011;58464;52.298;4.852;2022-11-20T01:21:05;14.00;;;7.90;;
70838;SDS011;58464;52.298;4.852;2022-11-20T01:23:36;16.13;;;6.78;;
70838;SDS011;58464;52.298;4.852;2022-11-20T01:26:04;11.63;;;6.57;;
70838;SDS011;58464;52.298;4.852;2022-11-20T01:28:31;14.48;;;7.07;;
70838;SDS011;58464;52.298;4.852;2022-11-20T01:30:57;12.52;;;7.00;;
70838;SDS011;58464;52.298;4.852;2022-11-20T01:33:23;14.32;;;6.85;;
70838;SDS011;58464;52.298;4.852;2022-11-20T01:35:48;11.68;;;6.57;;
70838;SDS011;58464;52.298;4.852;2022-11-20T01:38:14;53.25;;;19.42;;
70838;SDS011;58464;52.298;4.852;2022-11-20T01:40:41;11.30;;;6.57;;
70838;SDS011;58464;52.298;4.852;2022-11-20T01:43:14;10.57;;;5.68;;
70838;SDS011;58464;52.298;4.852;2022-11-20T01:48:47;13.75;;;7.35;;
70838;SDS011;58464;52.298;4.852;2022-11-20T01:53:48;23.25;;;9.55;;
70838;SDS011;58464;52.298;4.852;2022-11-20T01:56:16;57.40;;;22.00;;
70838;SDS011;58464;52.298;4.852;2022-11-20T01:58:44;14.02;;;7.82;;
70838;SDS011;58464;52.298;4.852;2022-11-20T02:01:15;11.20;;;6.82;;
70838;SDS011;58464;52.298;4.852;2022-11-20T02:03:41;14.90;;;7.97;;
70838;SDS011;58464;52.298;4.852;2022-11-20T02:06:22;11.80;;;7.35;;
70838;SDS011;58464;52.298;4.852;2022-11-20T02:08:50;15.02;;;7.75;;
70838;SDS011;58464;52.298;4.852;2022-11-20T02:11:16;18.08;;;9.45;;
70838;SDS011;58464;52.298;4.852;2022-11-20T02:13:41;14.35;;;8.20;;
70838;SDS011;58464;52.298;4.852;2022-11-20T02:16:33;14.75;;;7.55;;
70838;SDS011;58464;52.298;4.852;2022-11-20T02:19:02;15.07;;;8.27;;
70838;SDS011;58464;52.298;4.852;2022-11-20T02:26:38;14.48;;;7.72;;
70838;SDS011;58464;52.298;4.852;2022-11-20T02:29:07;10.70;;;6.60;;
70838;SDS011;58464;52.298;4.852;2022-11-20T02:31:36;18.05;;;8.27;;
70838;SDS011;58464;52.298;4.852;2022-11-20T02:34:03;15.98;;;7.22;;
70838;SDS011;58464;52.298;4.852;2022-11-20T02:36:28;16.48;;;6.80;;
70838;SDS011;58464;52.298;4.852;2022-11-20T02:38:58;15.35;;;8.10;;
70838;SDS011;58464;52.298;4.852;2022-11-20T02:41:31;11.10;;;7.28;;
70838;SDS011;58464;52.298;4.852;2022-11-20T02:44:00;17.08;;;7.75;;
70838;SDS011;58464;52.298;4.852;2022-11-20T02:46:26;15.18;;;7.53;;
70838;SDS011;58464;52.298;4.852;2022-11-20T02:48:52;16.60;;;8.05;;
70838;SDS011;58464;52.298;4.852;2022-11-20T02:51:17;10.55;;;6.70;;
70838;SDS011;58464;52.298;4.852;2022-11-20T02:53:43;13.50;;;7.05;;
70838;SDS011;58464;52.298;4.852;2022-11-20T02:56:08;12.48;;;6.75;;
70838;SDS011;58464;52.298;4.852;2022-11-20T02:58:34;12.27;;;7.40;;
70838;SDS011;58464;52.298;4.852;2022-11-20T03:00:59;15.18;;;8.00;;
70838;SDS011;58464;52.298;4.852;2022-11-20T03:03:24;11.45;;;6.82;;
70838;SDS011;58464;52.298;4.852;2022-11-20T03:05:50;13.95;;;6.75;;
70838;SDS011;58464;52.298;4.852;2022-11-20T03:08:15;11.00;;;6.22;;
70838;SDS011;58464;52.298;4.852;2022-11-20T03:10:40;12.10;;;7.18;;
70838;SDS011;58464;52.298;4.852;2022-11-20T03:13:06;13.88;;;7.05;;
70838;SDS011;58464;52.298;4.852;2022-11-20T03:15:31;13.32;;;6.88;;
70838;SDS011;58464;52.298;4.852;2022-11-20T03:17:56;10.32;;;5.95;;
70838;SDS011;58464;52.298;4.852;2022-11-20T03:20:22;9.93;;;6.72;;
70838;SDS011;58464;52.298;4.852;2022-11-20T03:22:48;11.52;;;7.05;;
70838;SDS011;58464;52.298;4.852;2022-11-20T03:25:13;10.43;;;6.38;;
70838;SDS011;58464;52.298;4.852;2022-11-20T03:27:38;13.70;;;6.85;;
70838;SDS011;58464;52.298;4.852;2022-11-20T03:30:04;10.98;;;7.20;;
70838;SDS011;58464;52.298;4.852;2022-11-20T03:32:30;10.88;;;7.05;;
70838;SDS011;58464;52.298;4.852;2022-11-20T03:34:56;11.07;;;7.18;;
70838;SDS011;58464;52.298;4.852;2022-11-20T03:37:21;11.45;;;6.57;;
70838;SDS011;58464;52.298;4.852;2022-11-20T03:39:47;16.02;;;6.88;;
70838;SDS011;58464;52.298;4.852;2022-11-20T03:42:12;11.40;;;7.28;;
70838;SDS011;58464;52.298;4.852;2022-11-20T03:44:56;13.63;;;7.68;;
70838;SDS011;58464;52.298;4.852;2022-11-20T03:47:21;12.07;;;7.20;;
70838;SDS011;58464;52.298;4.852;2022-11-20T03:49:47;12.93;;;7.43;;
70838;SDS011;58464;52.298;4.852;2022-11-20T03:52:12;12.23;;;7.55;;
70838;SDS011;58464;52.298;4.852;2022-11-20T03:54:37;13.77;;;8.10;;
70838;SDS011;58464;52.298;4.852;2022-11-20T03:57:03;12.40;;;7.43;;
70838;SDS011;58464;52.298;4.852;2022-11-20T03:59:28;10.93;;;7.10;;
70838;SDS011;58464;52.298;4.852;2022-11-20T04:01:54;12.13;;;7.78;;
70838;SDS011;58464;52.298;4.852;2022-11-20T04:04:19;11.55;;;7.20;;
70838;SDS011;58464;52.298;4.852;2022-11-20T04:06:44;10.60;;;6.70;;
70838;SDS011;58464;52.298;4.852;2022-11-20T04:09:10;11.48;;;7.53;;
70838;SDS011;58464;52.298;4.852;2022-11-20T04:11:36;12.55;;;7.57;;
70838;SDS011;58464;52.298;4.852;2022-11-20T04:14:04;11.10;;;7.28;;
70838;SDS011;58464;52.298;4.852;2022-11-20T04:16:32;12.27;;;7.78;;
70838;SDS011;58464;52.298;4.852;2022-11-20T04:18:59;12.25;;;7.78;;
70838;SDS011;58464;52.298;4.852;2022-11-20T04:21:26;12.32;;;7.45;;
70838;SDS011;58464;52.298;4.852;2022-11-20T04:23:53;11.73;;;7.45;;
70838;SDS011;58464;52.298;4.852;2022-11-20T04:26:19;14.00;;;7.40;;
70838;SDS011;58464;52.298;4.852;2022-11-20T04:28:45;12.05;;;7.40;;
70838;SDS011;58464;52.298;4.852;2022-11-20T04:31:14;9.75;;;6.68;;
70838;SDS011;58464;52.298;4.852;2022-11-20T04:33:41;11.65;;;7.18;;
70838;SDS011;58464;52.298;4.852;2022-11-20T04:36:18;10.43;;;7.22;;
70838;SDS011;58464;52.298;4.852;2022-11-20T04:38:45;14.35;;;7.65;;
70838;SDS011;58464;52.298;4.852;2022-11-20T04:41:16;14.15;;;7.80;;
70838;SDS011;58464;52.298;4.852;2022-11-20T04:43:47;10.63;;;7.65;;
70838;SDS011;58464;52.298;4.852;2022-11-20T04:46:14;13.82;;;7.50;;
70838;SDS011;58464;52.298;4.852;2022-11-20T04:48:40;12.95;;;7.47;;
70838;SDS011;58464;52.298;4.852;2022-11-20T04:51:05;14.77;;;7.85;;
70838;SDS011;58464;52.298;4.852;2022-11-20T04:53:31;12.68;;;7.50;;
70838;SDS011;58464;52.298;4.852;2022-11-20T04:56:00;11.48;;;7.68;;
70838;SDS011;58464;52.298;4.852;2022-11-20T04:58:26;12.27;;;6.90;;
70838;SDS011;58464;52.298;4.852;2022-11-20T05:00:51;12.85;;;8.30;;
70838;SDS011;58464;52.298;4.852;2022-11-20T05:03:17;14.02;;;7.88;;
70838;SDS011;58464;52.298;4.852;2022-11-20T05:05:42;10.75;;;7.03;;
70838;SDS011;58464;52.298;4.852;2022-11-20T05:08:07;11.88;;;7.90;;
70838;SDS011;58464;52.298;4.852;2022-11-20T05:10:33;10.80;;;6.85;;
70838;SDS011;58464;52.298;4.852;2022-11-20T05:12:58;12.73;;;7.80;;
70838;SDS011;58464;52.298;4.852;2022-11-20T05:15:23;13.80;;;8.02;;
70838;SDS011;58464;52.298;4.852;2022-11-20T05:17:49;10.45;;;7.90;;
70838;SDS011;58464;52.298;4.852;2022-11-20T05:20:15;12.18;;;8.10;;
70838;SDS011;58464;52.298;4.852;2022-11-20T05:22:41;13.10;;;8.10;;
70838;SDS011;58464;52.298;4.852;2022-11-20T05:25:07;14.85;;;7.22;;
70838;SDS011;58464;52.298;4.852;2022-11-20T05:27:32;12.02;;;7.63;;
70838;SDS011;58464;52.298;4.852;2022-11-20T05:29:58;14.13;;;8.20;;
70838;SDS011;58464;52.298;4.852;2022-11-20T05:32:23;14.60;;;8.43;;
70838;SDS011;58464;52.298;4.852;2022-11-20T05:34:50;13.07;;;8.45;;
70838;SDS011;58464;52.298;4.852;2022-11-20T05:37:18;15.10;;;8.32;;
70838;SDS011;58464;52.298;4.852;2022-11-20T05:39:44;15.10;;;8.85;;
70838;SDS011;58464;52.298;4.852;2022-11-20T05:42:09;12.95;;;8.15;;
70838;SDS011;58464;52.298;4.852;2022-11-20T05:44:54;12.70;;;7.90;;
70838;SDS011;58464;52.298;4.852;2022-11-20T05:47:20;14.80;;;8.35;;
70838;SDS011;58464;52.298;4.852;2022-11-20T05:49:45;11.02;;;8.02;;
70838;SDS011;58464;52.298;4.852;2022-11-20T05:52:10;12.40;;;7.70;;
70838;SDS011;58464;52.298;4.852;2022-11-20T05:54:36;15.98;;;8.45;;
70838;SDS011;58464;52.298;4.852;2022-11-20T05:57:01;13.60;;;8.23;;
70838;SDS011;58464;52.298;4.852;2022-11-20T05:59:27;13.05;;;8.73;;
70838;SDS011;58464;52.298;4.852;2022-11-20T06:01:52;14.55;;;8.48;;
70838;SDS011;58464;52.298;4.852;2022-11-20T06:04:17;15.85;;;8.48;;
70838;SDS011;58464;52.298;4.852;2022-11-20T06:06:43;14.60;;;8.35;;
70838;SDS011;58464;52.298;4.852;2022-11-20T06:09:08;15.70;;;8.32;;
70838;SDS011;58464;52.298;4.852;2022-11-20T06:11:33;12.60;;;8.35;;
70838;SDS011;58464;52.298;4.852;2022-11-20T06:14:00;13.15;;;8.40;;
70838;SDS011;58464;52.298;4.852;2022-11-20T06:16:26;12.73;;;8.30;;
70838;SDS011;58464;52.298;4.852;2022-11-20T06:18:51;13.93;;;8.50;;
70838;SDS011;58464;52.298;4.852;2022-11-20T06:21:18;15.55;;;8.90;;
70838;SDS011;58464;52.298;4.852;2022-11-20T06:23:45;13.35;;;8.15;;
70838;SDS011;58464;52.298;4.852;2022-11-20T06:26:12;10.85;;;8.10;;
70838;SDS011;58464;52.298;4.852;2022-11-20T06:28:45;14.23;;;8.90;;
70838;SDS011;58464;52.298;4.852;2022-11-20T06:31:12;14.15;;;8.88;;
70838;SDS011;58464;52.298;4.852;2022-11-20T06:33:39;19.80;;;9.80;;
70838;SDS011;58464;52.298;4.852;2022-11-20T06:36:05;14.63;;;8.75;;
70838;SDS011;58464;52.298;4.852;2022-11-20T06:38:31;16.92;;;9.40;;
70838;SDS011;58464;52.298;4.852;2022-11-20T06:40:56;14.15;;;8.63;;
70838;SDS011;58464;52.298;4.852;2022-11-20T06:43:22;15.02;;;8.95;;
70838;SDS011;58464;52.298;4.852;2022-11-20T06:45:54;14.40;;;9.30;;
70838;SDS011;58464;52.298;4.852;2022-11-20T06:48:21;14.85;;;9.13;;
70838;SDS011;58464;52.298;4.852;2022-11-20T06:50:48;13.85;;;9.13;;
70838;SDS011;58464;52.298;4.852;2022-11-20T06:53:13;14.00;;;8.63;;
70838;SDS011;58464;52.298;4.852;2022-11-20T06:55:43;14.75;;;8.98;;
70838;SDS011;58464;52.298;4.852;2022-11-20T06:58:12;14.38;;;9.05;;
70838;SDS011;58464;52.298;4.852;2022-11-20T07:00:38;13.98;;;9.43;;
70838;SDS011;58464;52.298;4.852;2022-11-20T07:03:04;14.73;;;9.43;;
70838;SDS011;58464;52.298;4.852;2022-11-20T07:05:30;12.52;;;8.38;;
70838;SDS011;58464;52.298;4.852;2022-11-20T07:07:56;15.60;;;8.57;;
70838;SDS011;58464;52.298;4.852;2022-11-20T07:10:22;16.42;;;8.98;;
70838;SDS011;58464;52.298;4.852;2022-11-20T07:12:49;17.83;;;9.88;;
70838;SDS011;58464;52.298;4.852;2022-11-20T07:15:15;16.88;;;9.30;;
70838;SDS011;58464;52.298;4.852;2022-11-20T07:17:41;15.02;;;9.68;;
70838;SDS011;58464;52.298;4.852;2022-11-20T07:20:06;16.33;;;9.70;;
70838;SDS011;58464;52.298;4.852;2022-11-20T07:22:32;16.35;;;9.23;;
70838;SDS011;58464;52.298;4.852;2022-11-20T07:24:57;16.58;;;9.68;;
70838;SDS011;58464;52.298;4.852;2022-11-20T07:27:23;14.93;;;9.45;;
70838;SDS011;58464;52.298;4.852;2022-11-20T07:29:48;17.88;;;10.00;;
70838;SDS011;58464;52.298;4.852;2022-11-20T07:32:13;17.52;;;10.15;;
70838;SDS011;58464;52.298;4.852;2022-11-20T07:34:39;13.07;;;9.05;;
70838;SDS011;58464;52.298;4.852;2022-11-20T07:37:06;15.82;;;9.68;;
70838;SDS011;58464;52.298;4.852;2022-11-20T07:39:31;13.63;;;9.05;;
70838;SDS011;58464;52.298;4.852;2022-11-20T07:41:56;17.30;;;10.38;;
70838;SDS011;58464;52.298;4.852;2022-11-20T07:44:22;15.80;;;9.52;;
70838;SDS011;58464;52.298;4.852;2022-11-20T07:46:47;16.13;;;9.65;;
70838;SDS011;58464;52.298;4.852;2022-11-20T07:49:12;16.58;;;9.85;;
70838;SDS011;58464;52.298;4.852;2022-11-20T07:51:38;12.93;;;8.27;;
70838;SDS011;58464;52.298;4.852;2022-11-20T07:54:03;16.58;;;9.07;;
70838;SDS011;58464;52.298;4.852;2022-11-20T07:56:28;15.68;;;10.25;;
70838;SDS011;58464;52.298;4.852;2022-11-20T07:58:54;17.27;;;10.35;;
70838;SDS011;58464;52.298;4.852;2022-11-20T08:01:20;15.13;;;9.15;;
70838;SDS011;58464;52.298;4.852;2022-11-20T08:03:46;15.65;;;9.45;;
70838;SDS011;58464;52.298;4.852;2022-11-20T08:06:11;14.77;;;9.77;;
70838;SDS011;58464;52.298;4.852;2022-11-20T08:08:36;22.10;;;10.10;;
70838;SDS011;58464;52.298;4.852;2022-11-20T08:11:04;18.13;;;10.25;;
70838;SDS011;58464;52.298;4.852;2022-11-20T08:13:48;15.87;;;10.53;;
70838;SDS011;58464;52.298;4.852;2022-11-20T08:16:32;18.15;;;11.05;;
70838;SDS011;58464;52.298;4.852;2022-11-20T08:18:57;17.13;;;11.05;;
70838;SDS011;58464;52.298;4.852;2022-11-20T08:21:23;17.83;;;10.00;;
70838;SDS011;58464;52.298;4.852;2022-11-20T08:23:48;16.88;;;10.05;;
70838;SDS011;58464;52.298;4.852;2022-11-20T08:26:14;17.40;;;10.00;;
70838;SDS011;58464;52.298;4.852;2022-11-20T08:28:39;18.63;;;10.23;;
70838;SDS011;58464;52.298;4.852;2022-11-20T08:31:05;21.30;;;10.82;;
70838;SDS011;58464;52.298;4.852;2022-11-20T08:33:31;16.40;;;9.85;;
70838;SDS011;58464;52.298;4.852;2022-11-20T08:36:01;16.67;;;11.20;;
70838;SDS011;58464;52.298;4.852;2022-11-20T08:38:28;16.45;;;10.15;;
70838;SDS011;58464;52.298;4.852;2022-11-20T08:40:58;16.98;;;10.30;;
70838;SDS011;58464;52.298;4.852;2022-11-20T08:43:42;15.05;;;9.85;;
70838;SDS011;58464;52.298;4.852;2022-11-20T08:46:07;20.20;;;10.48;;
70838;SDS011;58464;52.298;4.852;2022-11-20T08:48:33;19.58;;;10.85;;
70838;SDS011;58464;52.298;4.852;2022-11-20T08:50:58;17.02;;;9.77;;
70838;SDS011;58464;52.298;4.852;2022-11-20T08:53:24;17.10;;;10.88;;
70838;SDS011;58464;52.298;4.852;2022-11-20T08:55:50;14.23;;;10.07;;
70838;SDS011;58464;52.298;4.852;2022-11-20T08:58:15;19.42;;;10.70;;
70838;SDS011;58464;52.298;4.852;2022-11-20T09:00:40;17.13;;;10.35;;
70838;SDS011;58464;52.298;4.852;2022-11-20T09:03:06;15.30;;;10.38;;
70838;SDS011;58464;52.298;4.852;2022-11-20T09:05:31;17.30;;;10.43;;
70838;SDS011;58464;52.298;4.852;2022-11-20T09:07:57;17.13;;;10.60;;
70838;SDS011;58464;52.298;4.852;2022-11-20T09:10:23;18.70;;;11.32;;
70838;SDS011;58464;52.298;4.852;2022-11-20T09:12:49;17.40;;;10.57;;
70838;SDS011;58464;52.298;4.852;2022-11-20T09:15:17;18.77;;;11.68;;
70838;SDS011;58464;52.298;4.852;2022-11-20T09:20:19;21.48;;;11.02;;
70838;SDS011;58464;52.298;4.852;2022-11-20T09:22:44;17.52;;;10.85;;
70838;SDS011;58464;52.298;4.852;2022-11-20T09:25:10;16.50;;;10.95;;
70838;SDS011;58464;52.298;4.852;2022-11-20T09:27:35;19.73;;;11.10;;
70838;SDS011;58464;52.298;4.852;2022-11-20T09:30:01;19.08;;;11.25;;
70838;SDS011;58464;52.298;4.852;2022-11-20T09:32:27;20.08;;;11.68;;
70838;SDS011;58464;52.298;4.852;2022-11-20T09:34:53;21.52;;;11.32;;
70838;SDS011;58464;52.298;4.852;2022-11-20T09:37:19;16.00;;;10.70;;
70838;SDS011;58464;52.298;4.852;2022-11-20T09:39:44;27.90;;;11.77;;
70838;SDS011;58464;52.298;4.852;2022-11-20T09:42:22;16.88;;;10.63;;
70838;SDS011;58464;52.298;4.852;2022-11-20T09:45:15;17.05;;;10.85;;
70838;SDS011;58464;52.298;4.852;2022-11-20T09:51:21;19.83;;;11.73;;
70838;SDS011;58464;52.298;4.852;2022-11-20T09:56:17;19.63;;;12.48;;
70838;SDS011;58464;52.298;4.852;2022-11-20T09:58:45;18.15;;;10.65;;
70838;SDS011;58464;52.298;4.852;2022-11-20T10:01:15;17.42;;;10.75;;
70838;SDS011;58464;52.298;4.852;2022-11-20T10:03:50;20.42;;;11.27;;
70838;SDS011;58464;52.298;4.852;2022-11-20T10:07:24;18.90;;;11.30;;
70838;SDS011;58464;52.298;4.852;2022-11-20T10:09:36;20.95;;;12.18;;
70838;SDS011;58464;52.298;4.852;2022-11-20T10:26:01;17.30;;;10.98;;
70838;SDS011;58464;52.298;4.852;2022-11-20T10:31:33;24.40;;;11.35;;
70838;SDS011;58464;52.298;4.852;2022-11-20T10:36:55;16.30;;;11.10;;
70838;SDS011;58464;52.298;4.852;2022-11-20T10:39:31;23.38;;;10.63;;
70838;SDS011;58464;52.298;4.852;2022-11-20T10:42:00;18.10;;;11.38;;
70838;SDS011;58464;52.298;4.852;2022-11-20T10:44:27;27.30;;;11.70;;
70838;SDS011;58464;52.298;4.852;2022-11-20T10:47:14;23.27;;;12.10;;
70838;SDS011;58464;52.298;4.852;2022-11-20T10:49:41;20.88;;;11.48;;
70838;SDS011;58464;52.298;4.852;2022-11-20T11:02:31;17.10;;;10.60;;
70838;SDS011;58464;52.298;4.852;2022-11-20T11:05:04;20.15;;;12.50;;
70838;SDS011;58464;52.298;4.852;2022-11-20T11:07:39;21.13;;;12.07;;
70838;SDS011;58464;52.298;4.852;2022-11-20T11:10:13;21.65;;;11.80;;
70838;SDS011;58464;52.298;4.852;2022-11-20T11:12:44;21.23;;;12.20;;
70838;SDS011;58464;52.298;4.852;2022-11-20T11:15:13;21.98;;;12.50;;
70838;SDS011;58464;52.298;4.852;2022-11-20T11:17:49;20.20;;;12.13;;
70838;SDS011;58464;52.298;4.852;2022-11-20T11:22:43;21.73;;;12.10;;
70838;SDS011;58464;52.298;4.852;2022-11-20T11:27:47;20.45;;;12.60;;
70838;SDS011;58464;52.298;4.852;2022-11-20T11:30:14;22.48;;;13.43;;
70838;SDS011;58464;52.298;4.852;2022-11-20T11:32:42;25.05;;;13.60;;
70838;SDS011;58464;52.298;4.852;2022-11-20T11:35:27;22.63;;;13.80;;
70838;SDS011;58464;52.298;4.852;2022-11-20T11:37:54;26.55;;;15.13;;
70838;SDS011;58464;52.298;4.852;2022-11-20T11:40:27;27.20;;;15.02;;
70838;SDS011;58464;52.298;4.852;2022-11-20T11:43:00;25.80;;;14.80;;
70838;SDS011;58464;52.298;4.852;2022-11-20T11:45:27;28.17;;;15.63;;
70838;SDS011;58464;52.298;4.852;2022-11-20T11:47:53;26.95;;;15.68;;
70838;SDS011;58464;52.298;4.852;2022-11-20T11:50:22;32.50;;;16.17;;
70838;SDS011;58464;52.298;4.852;2022-11-20T11:52:58;29.42;;;16.67;;
70838;SDS011;58464;52.298;4.852;2022-11-20T11:58:41;29.88;;;16.42;;
70838;SDS011;58464;52.298;4.852;2022-11-20T12:04:05;30.40;;;17.95;;
70838;SDS011;58464;52.298;4.852;2022-11-20T12:06:39;31.45;;;18.33;;
70838;SDS011;58464;52.298;4.852;2022-11-20T12:09:10;36.92;;;20.05;;
70838;SDS011;58464;52.298;4.852;2022-11-20T12:17:07;32.22;;;18.67;;
70838;SDS011;58464;52.298;4.852;2022-11-20T12:19:35;31.92;;;16.67;;
70838;SDS011;58464;52.298;4.852;2022-11-20T12:27:45;34.03;;;19.15;;
70838;SDS011;58464;52.298;4.852;2022-11-20T12:30:33;35.72;;;16.80;;
70838;SDS011;58464;52.298;4.852;2022-11-20T12:33:18;34.17;;;18.70;;
70838;SDS011;58464;52.298;4.852;2022-11-20T12:53:13;38.92;;;20.23;;
70838;SDS011;58464;52.298;4.852;2022-11-20T12:55:54;39.35;;;19.48;;
70838;SDS011;58464;52.298;4.852;2022-11-20T12:58:37;26.60;;;15.07;;
70838;SDS011;58464;52.298;4.852;2022-11-20T13:07:09;40.15;;;21.05;;
70838;SDS011;58464;52.298;4.852;2022-11-20T13:09:39;42.17;;;20.88;;
70838;SDS011;58464;52.298;4.852;2022-11-20T13:14:49;43.70;;;21.83;;
70838;SDS011;58464;52.298;4.852;2022-11-20T13:17:30;43.58;;;21.38;;
70838;SDS011;58464;52.298;4.852;2022-11-20T13:20:12;39.75;;;20.15;;
70838;SDS011;58464;52.298;4.852;2022-11-20T13:25:22;38.90;;;21.75;;
70838;SDS011;58464;52.298;4.852;2022-11-20T13:27:49;40.05;;;21.20;;
70838;SDS011;58464;52.298;4.852;2022-11-20T13:30:16;51.30;;;22.15;;
70838;SDS011;58464;52.298;4.852;2022-11-20T13:32:53;46.58;;;21.98;;
70838;SDS011;58464;52.298;4.852;2022-11-20T13:35:27;37.15;;;20.73;;
70838;SDS011;58464;52.298;4.852;2022-11-20T13:38:14;37.30;;;18.95;;
70838;SDS011;58464;52.298;4.852;2022-11-20T13:43:44;31.67;;;17.27;;
70838;SDS011;58464;52.298;4.852;2022-11-20T13:46:12;33.90;;;19.52;;
70838;SDS011;58464;52.298;4.852;2022-11-20T13:48:39;42.42;;;21.40;;
70838;SDS011;58464;52.298;4.852;2022-11-20T14:02:05;32.40;;;16.73;;
70838;SDS011;58464;52.298;4.852;2022-11-20T14:04:45;34.03;;;19.38;;
70838;SDS011;58464;52.298;4.852;2022-11-20T14:07:13;42.65;;;17.55;;
70838;SDS011;58464;52.298;4.852;2022-11-20T14:09:48;31.85;;;17.52;;
70838;SDS011;58464;52.298;4.852;2022-11-20T14:12:19;40.45;;;19.35;;
70838;SDS011;58464;52.298;4.852;2022-11-20T14:14:52;32.67;;;19.10;;
70838;SDS011;58464;52.298;4.852;2022-11-20T14:19:53;34.80;;;19.48;;
70838;SDS011;58464;52.298;4.852;2022-11-20T14:22:23;34.47;;;19.65;;
70838;SDS011;58464;52.298;4.852;2022-11-20T14:27:37;40.78;;;19.08;;
70838;SDS011;58464;52.298;4.852;2022-11-20T14:30:05;37.28;;;19.60;;
70838;SDS011;58464;52.298;4.852;2022-11-20T14:32:38;39.95;;;19.67;;
70838;SDS011;58464;52.298;4.852;2022-11-20T14:35:06;39.78;;;19.38;;
70838;SDS011;58464;52.298;4.852;2022-11-20T14:37:36;39.95;;;20.30;;
70838;SDS011;58464;52.298;4.852;2022-11-20T14:40:05;38.47;;;20.30;;
70838;SDS011;58464;52.298;4.852;2022-11-20T14:42:46;38.97;;;20.05;;
70838;SDS011;58464;52.298;4.852;2022-11-20T14:45:12;40.60;;;20.15;;
70838;SDS011;58464;52.298;4.852;2022-11-20T14:47:37;40.53;;;21.25;;
70838;SDS011;58464;52.298;4.852;2022-11-20T14:50:03;41.30;;;20.77;;
70838;SDS011;58464;52.298;4.852;2022-11-20T14:55:03;34.17;;;19.17;;
70838;SDS011;58464;52.298;4.852;2022-11-20T14:57:30;35.13;;;19.77;;
70838;SDS011;58464;52.298;4.852;2022-11-20T15:00:18;39.08;;;21.05;;
70838;SDS011;58464;52.298;4.852;2022-11-20T15:02:47;36.17;;;20.17;;
70838;SDS011;58464;52.298;4.852;2022-11-20T15:05:14;37.60;;;20.15;;
70838;SDS011;58464;52.298;4.852;2022-11-20T15:07:41;41.45;;;19.98;;
70838;SDS011;58464;52.298;4.852;2022-11-20T15:10:24;36.47;;;20.75;;
70838;SDS011;58464;52.298;4.852;2022-11-20T15:13:34;39.50;;;20.25;;
70838;SDS011;58464;52.298;4.852;2022-11-20T15:18:16;33.97;;;20.13;;
70838;SDS011;58464;52.298;4.852;2022-11-20T15:20:45;36.03;;;20.38;;
70838;SDS011;58464;52.298;4.852;2022-11-20T15:23:12;39.85;;;20.30;;
70838;SDS011;58464;52.298;4.852;2022-11-20T15:25:42;33.40;;;19.02;;
70838;SDS011;58464;52.298;4.852;2022-11-20T15:30:45;33.45;;;18.55;;
70838;SDS011;58464;52.298;4.852;2022-11-20T15:33:11;34.67;;;19.65;;
70838;SDS011;58464;52.298;4.852;2022-11-20T15:35:37;35.60;;;20.08;;
70838;SDS011;58464;52.298;4.852;2022-11-20T15:38:02;39.22;;;20.83;;
70838;SDS011;58464;52.298;4.852;2022-11-20T15:40:28;31.02;;;16.85;;
70838;SDS011;58464;52.298;4.852;2022-11-20T15:42:53;33.60;;;19.40;;
70838;SDS011;58464;52.298;4.852;2022-11-20T15:45:28;35.22;;;19.98;;
70838;SDS011;58464;52.298;4.852;2022-11-20T15:47:58;32.22;;;18.02;;
70838;SDS011;58464;52.298;4.852;2022-11-20T15:50:25;33.50;;;18.60;;
70838;SDS011;58464;52.298;4.852;2022-11-20T15:52:55;36.47;;;18.90;;
70838;SDS011;58464;52.298;4.852;2022-11-20T15:55:20;29.60;;;17.10;;
70838;SDS011;58464;52.298;4.852;2022-11-20T15:57:45;34.15;;;19.10;;
70838;SDS011;58464;52.298;4.852;2022-11-20T16:00:11;30.08;;;18.05;;
70838;SDS011;58464;52.298;4.852;2022-11-20T16:02:37;28.15;;;16.73;;
70838;SDS011;58464;52.298;4.852;2022-11-20T16:05:02;23.23;;;13.98;;
70838;SDS011;58464;52.298;4.852;2022-11-20T16:07:28;30.77;;;17.48;;
70838;SDS011;58464;52.298;4.852;2022-11-20T16:09:53;31.58;;;18.65;;
70838;SDS011;58464;52.298;4.852;2022-11-20T16:12:20;24.70;;;13.75;;
70838;SDS011;58464;52.298;4.852;2022-11-20T16:15:04;36.22;;;18.63;;
70838;SDS011;58464;52.298;4.852;2022-11-20T16:17:49;40.78;;;19.83;;
70838;SDS011;58464;52.298;4.852;2022-11-20T16:20:15;33.42;;;17.98;;
70838;SDS011;58464;52.298;4.852;2022-11-20T16:22:40;33.40;;;18.17;;
70838;SDS011;58464;52.298;4.852;2022-11-20T16:25:05;31.50;;;17.35;;
70838;SDS011;58464;52.298;4.852;2022-11-20T16:27:31;27.88;;;16.58;;
70838;SDS011;58464;52.298;4.852;2022-11-20T16:29:57;31.80;;;17.38;;
70838;SDS011;58464;52.298;4.852;2022-11-20T16:32:22;28.20;;;13.85;;
70838;SDS011;58464;52.298;4.852;2022-11-20T16:34:47;24.05;;;13.50;;
70838;SDS011;58464;52.298;4.852;2022-11-20T16:37:14;29.83;;;16.13;;
70838;SDS011;58464;52.298;4.852;2022-11-20T16:39:39;29.83;;;17.17;;
70838;SDS011;58464;52.298;4.852;2022-11-20T16:42:05;30.30;;;16.13;;